Time;durP1;ratioP1;P1;durP2;ratioP2;P2;SDS_P1;SDS_P2;PMS_P1;PMS_P2;Temp;Humidity;BMP_temperature;BMP_pressure;BME280_temperature;BME280_humidity;BME280_pressure;Samples;Min_cycle;Max_cycle;Signal;HPM_P1;HPM_P2
2021/09/13 00:01:04;;;;;;;9.13;4.68;;;14.60;99.90;;;;;;5010668;28;25104;-69
2021/09/13 00:03:29;;;;;;;7.60;5.03;;;14.60;99.90;;;;;;5002951;28;25140;-69
2021/09/13 00:05:55;;;;;;;9.27;4.80;;;14.60;99.90;;;;;;4989074;28;25138;-69
2021/09/13 00:08:20;;;;;;;6.00;4.63;;;14.60;99.90;;;;;;5002347;28;25070;-69
2021/09/13 00:10:47;;;;;;;6.55;4.63;;;14.40;99.90;;;;;;4992755;28;25054;-71
2021/09/13 00:13:13;;;;;;;5.30;4.15;;;14.40;99.90;;;;;;4994993;28;25082;-68
2021/09/13 00:15:40;;;;;;;7.05;5.03;;;14.40;99.90;;;;;;4993001;28;25048;-69
2021/09/13 00:18:07;;;;;;;5.93;4.85;;;14.40;99.90;;;;;;4996080;28;25064;-70
2021/09/13 00:20:32;;;;;;;6.68;5.13;;;14.30;99.90;;;;;;5001417;28;25051;-71
2021/09/13 00:22:58;;;;;;;8.52;4.63;;;14.30;99.90;;;;;;5005225;28;25128;-70
2021/09/13 00:25:24;;;;;;;5.78;4.35;;;14.30;99.90;;;;;;5009763;28;25084;-70
2021/09/13 00:27:49;;;;;;;6.65;4.88;;;14.40;99.90;;;;;;5014577;28;25057;-69
2021/09/13 00:30:16;;;;;;;8.00;5.00;;;14.50;99.90;;;;;;5027010;28;25059;-70
2021/09/13 00:32:41;;;;;;;6.97;4.15;;;14.50;99.90;;;;;;5014063;28;25078;-69
2021/09/13 00:35:07;;;;;;;6.85;3.80;;;14.60;99.90;;;;;;5017883;28;25063;-68
2021/09/13 00:37:33;;;;;;;8.70;5.13;;;14.40;99.90;;;;;;5017324;28;25083;-71
2021/09/13 00:39:58;;;;;;;6.00;4.70;;;14.30;99.90;;;;;;5011708;28;25062;-68
2021/09/13 00:42:24;;;;;;;7.40;4.68;;;14.30;99.90;;;;;;4995871;28;25101;-69
2021/09/13 00:44:50;;;;;;;8.15;4.65;;;14.20;99.90;;;;;;5005608;28;25123;-68
2021/09/13 00:47:15;;;;;;;6.75;4.88;;;14.10;99.90;;;;;;5007029;28;25073;-68
2021/09/13 00:49:41;;;;;;;5.50;4.95;;;14.10;99.90;;;;;;5010522;28;25053;-68
2021/09/13 00:52:07;;;;;;;5.95;4.13;;;14.10;99.90;;;;;;4990776;28;25163;-68
2021/09/13 00:54:34;;;;;;;8.57;4.90;;;14.10;99.90;;;;;;4992017;28;25058;-69
2021/09/13 00:57:00;;;;;;;6.00;4.93;;;14.10;99.90;;;;;;5021205;28;25057;-69
2021/09/13 00:59:25;;;;;;;5.28;4.60;;;14.10;99.90;;;;;;5015640;28;25053;-71
2021/09/13 01:01:51;;;;;;;6.93;5.53;;;14.00;99.90;;;;;;4998867;28;25078;-69
2021/09/13 01:04:17;;;;;;;9.20;5.22;;;14.00;99.90;;;;;;5003128;28;25106;-68
2021/09/13 01:06:42;;;;;;;7.55;4.82;;;14.20;99.90;;;;;;5011624;28;25080;-70
2021/09/13 01:09:08;;;;;;;7.63;5.15;;;14.20;99.90;;;;;;5007218;28;25136;-70
2021/09/13 01:11:34;;;;;;;10.20;4.70;;;14.10;99.90;;;;;;5005975;28;25062;-71
2021/09/13 01:14:00;;;;;;;6.03;4.82;;;14.10;99.90;;;;;;5010073;28;25145;-67
2021/09/13 01:16:26;;;;;;;7.68;5.38;;;13.90;99.90;;;;;;4996075;28;25164;-70
2021/09/13 01:18:51;;;;;;;9.02;5.25;;;13.90;99.90;;;;;;4992749;28;25067;-68
2021/09/13 01:21:17;;;;;;;6.40;5.03;;;13.80;99.90;;;;;;5009007;28;25069;-69
2021/09/13 01:23:43;;;;;;;6.32;5.25;;;13.80;99.90;;;;;;4996431;28;25139;-68
2021/09/13 01:26:09;;;;;;;10.10;5.80;;;13.90;99.90;;;;;;5008602;28;25066;-68
2021/09/13 01:28:34;;;;;;;5.53;5.00;;;13.90;99.90;;;;;;4991145;28;25046;-69
2021/09/13 01:31:01;;;;;;;7.90;5.55;;;13.90;99.90;;;;;;4993170;28;25122;-69
2021/09/13 01:33:26;;;;;;;8.07;5.07;;;13.80;99.90;;;;;;5010902;28;25106;-70
2021/09/13 01:35:52;;;;;;;6.80;5.13;;;13.80;99.90;;;;;;5010300;28;25103;-71
2021/09/13 01:38:21;;;;;;;9.23;5.80;;;13.80;99.90;;;;;;5006701;28;25068;-69
2021/09/13 01:40:47;;;;;;;10.68;5.40;;;13.70;99.90;;;;;;5007583;28;25091;-72
2021/09/13 01:43:13;;;;;;;11.38;5.13;;;13.70;99.90;;;;;;5010696;28;25136;-69
2021/09/13 01:45:38;;;;;;;5.60;5.10;;;13.70;99.90;;;;;;5005857;28;25120;-70
2021/09/13 01:48:04;;;;;;;6.82;5.25;;;13.70;99.90;;;;;;5004357;28;25067;-69
2021/09/13 01:50:30;;;;;;;8.55;5.80;;;13.80;99.90;;;;;;5011088;28;25078;-68
2021/09/13 01:52:56;;;;;;;8.05;5.13;;;13.80;99.90;;;;;;5007632;28;25082;-69
2021/09/13 01:55:21;;;;;;;6.70;5.45;;;13.70;99.90;;;;;;4999925;28;25160;-68
2021/09/13 01:57:47;;;;;;;10.00;5.60;;;13.70;99.90;;;;;;5010966;28;25138;-69
2021/09/13 02:00:13;;;;;;;9.13;6.05;;;13.60;99.90;;;;;;5009032;28;25090;-70
2021/09/13 02:02:39;;;;;;;8.55;6.07;;;13.50;99.90;;;;;;5006862;28;25066;-69
2021/09/13 02:05:05;;;;;;;8.20;5.60;;;13.50;99.90;;;;;;5003453;28;25139;-69
2021/09/13 02:07:30;;;;;;;8.48;5.93;;;13.50;99.90;;;;;;5005908;28;25074;-70
2021/09/13 02:09:56;;;;;;;8.93;5.55;;;13.50;99.90;;;;;;5009958;28;25128;-71
2021/09/13 02:12:23;;;;;;;8.55;5.32;;;13.50;99.90;;;;;;5010961;28;25133;-68
2021/09/13 02:14:49;;;;;;;7.85;5.72;;;13.50;99.90;;;;;;5012607;28;25081;-69
2021/09/13 02:17:15;;;;;;;6.45;5.82;;;13.60;99.90;;;;;;5010444;28;25053;-68
2021/09/13 02:19:41;;;;;;;7.80;5.80;;;13.60;99.90;;;;;;5007581;28;25110;-68
2021/09/13 02:22:06;;;;;;;10.02;6.30;;;13.60;99.90;;;;;;5008997;28;25065;-69
2021/09/13 02:24:32;;;;;;;10.57;6.07;;;13.50;99.90;;;;;;5007822;28;25094;-69
2021/09/13 02:26:58;;;;;;;7.90;6.10;;;13.50;99.90;;;;;;5007491;28;25071;-69
2021/09/13 02:29:24;;;;;;;11.07;5.97;;;13.50;99.90;;;;;;5010056;28;25080;-70
2021/09/13 02:31:50;;;;;;;7.63;6.53;;;13.50;99.90;;;;;;5010353;28;25076;-71
2021/09/13 02:34:15;;;;;;;7.15;5.93;;;13.50;99.90;;;;;;5004478;28;25059;-69
2021/09/13 02:36:41;;;;;;;10.80;6.20;;;13.50;99.90;;;;;;5006086;28;25163;-69
2021/09/13 02:39:09;;;;;;;6.22;5.13;;;13.50;99.90;;;;;;5005141;28;25116;-68
2021/09/13 02:41:35;;;;;;;7.22;5.10;;;13.50;99.90;;;;;;5012595;28;25068;-69
2021/09/13 02:44:01;;;;;;;7.63;5.07;;;13.50;99.90;;;;;;5015979;28;25057;-69
2021/09/13 02:46:26;;;;;;;9.50;5.18;;;13.50;99.90;;;;;;5012428;28;25060;-69
2021/09/13 02:48:52;;;;;;;10.00;5.45;;;13.50;99.90;;;;;;5009295;28;25058;-70
2021/09/13 02:51:17;;;;;;;8.73;5.30;;;13.40;99.90;;;;;;4999016;28;25076;-68
2021/09/13 02:53:43;;;;;;;6.55;5.93;;;13.40;99.90;;;;;;5001405;28;25141;-69
2021/09/13 02:56:08;;;;;;;9.20;5.10;;;13.40;99.90;;;;;;5004707;28;25072;-69
2021/09/13 02:58:34;;;;;;;9.50;5.60;;;13.40;99.90;;;;;;5001692;28;25118;-69
2021/09/13 03:01:00;;;;;;;7.63;5.38;;;13.50;99.90;;;;;;4999550;28;25152;-68
2021/09/13 03:03:25;;;;;;;5.63;5.13;;;13.70;99.90;;;;;;5009358;28;25061;-69
2021/09/13 03:05:51;;;;;;;12.82;6.57;;;13.60;99.90;;;;;;5011249;28;25073;-69
2021/09/13 03:08:17;;;;;;;10.02;5.97;;;13.60;99.90;;;;;;5010171;28;25094;-69
2021/09/13 03:10:43;;;;;;;9.15;5.22;;;13.60;99.90;;;;;;5010492;28;25106;-70
2021/09/13 03:13:08;;;;;;;6.55;5.88;;;13.50;99.90;;;;;;5016718;28;25059;-70
2021/09/13 03:15:34;;;;;;;6.53;5.78;;;13.40;99.90;;;;;;5002859;28;25130;-69
2021/09/13 03:17:59;;;;;;;9.75;6.05;;;13.40;99.90;;;;;;5010703;28;25165;-68
2021/09/13 03:20:25;;;;;;;5.80;4.97;;;13.50;99.90;;;;;;5010088;28;25153;-69
2021/09/13 03:22:51;;;;;;;8.65;5.20;;;13.40;99.90;;;;;;5015300;28;25057;-69
2021/09/13 03:25:16;;;;;;;7.90;5.43;;;13.40;99.90;;;;;;5017253;28;25131;-69
2021/09/13 03:27:42;;;;;;;10.55;5.22;;;13.30;99.90;;;;;;5014291;28;25095;-70
2021/09/13 03:30:09;;;;;;;8.85;5.03;;;13.20;99.90;;;;;;5001430;28;25121;-69
2021/09/13 03:32:34;;;;;;;5.85;5.35;;;13.20;99.90;;;;;;5010426;28;25077;-69
2021/09/13 03:35:00;;;;;;;6.70;4.80;;;13.30;99.90;;;;;;5008151;28;25104;-69
2021/09/13 03:37:25;;;;;;;16.25;5.85;;;13.30;99.90;;;;;;5007603;28;25157;-69
2021/09/13 03:39:51;;;;;;;7.95;5.35;;;13.10;99.90;;;;;;5002105;28;25121;-70
2021/09/13 03:42:17;;;;;;;7.95;5.95;;;13.20;99.90;;;;;;5001711;28;25047;-69
2021/09/13 03:44:42;;;;;;;7.60;5.70;;;13.10;99.90;;;;;;5003650;28;25095;-69
2021/09/13 03:47:08;;;;;;;6.32;5.70;;;13.00;99.90;;;;;;5006623;28;25066;-70
2021/09/13 03:49:33;;;;;;;9.93;6.20;;;13.10;99.90;;;;;;5013028;28;25118;-69
2021/09/13 03:51:59;;;;;;;9.32;5.72;;;13.10;99.90;;;;;;5014998;28;25082;-69
2021/09/13 03:54:24;;;;;;;6.35;5.72;;;13.10;99.90;;;;;;4999161;28;25083;-70
2021/09/13 03:56:51;;;;;;;6.53;5.72;;;13.20;99.90;;;;;;4993416;28;25070;-69
2021/09/13 03:59:16;;;;;;;9.35;5.72;;;13.20;99.90;;;;;;5000186;28;25090;-69
2021/09/13 04:01:42;;;;;;;7.00;5.63;;;13.10;99.90;;;;;;5010650;28;25106;-69
2021/09/13 04:04:09;;;;;;;7.38;5.97;;;13.00;99.90;;;;;;5011046;28;25097;-69
2021/09/13 04:14:15;;;;;;;6.95;5.43;;;13.00;99.90;;;;;;5004819;28;25143;-69
2021/09/13 04:16:41;;;;;;;6.50;5.72;;;13.10;99.90;;;;;;5003544;28;25081;-70
2021/09/13 04:19:06;;;;;;;8.98;5.78;;;13.00;99.90;;;;;;5001789;28;25090;-70
2021/09/13 04:21:32;;;;;;;8.27;5.35;;;13.00;99.90;;;;;;5009508;28;25106;-70
2021/09/13 04:23:57;;;;;;;13.25;6.40;;;13.00;99.90;;;;;;5009351;28;25091;-68
2021/09/13 04:28:50;;;;;;;6.93;6.13;;;12.90;99.90;;;;;;5005572;28;25060;-61
2021/09/13 04:31:16;;;;;;;7.30;5.75;;;13.00;99.90;;;;;;5009851;28;25076;-62
2021/09/13 04:33:41;;;;;;;7.10;5.93;;;13.00;99.90;;;;;;5009087;28;25144;-61
2021/09/13 04:36:07;;;;;;;9.85;5.30;;;12.90;99.90;;;;;;5010325;28;25070;-62
2021/09/13 04:38:33;;;;;;;9.23;7.20;;;12.90;99.90;;;;;;5011257;28;25063;-60
2021/09/13 04:40:58;;;;;;;9.23;6.80;;;12.80;99.90;;;;;;5012965;28;25050;-61
2021/09/13 04:43:24;;;;;;;14.05;6.00;;;12.90;99.90;;;;;;5016155;28;25077;-62
2021/09/13 04:45:49;;;;;;;7.20;6.50;;;12.90;99.90;;;;;;5016140;28;25059;-60
2021/09/13 04:48:15;;;;;;;10.93;6.75;;;12.90;99.90;;;;;;5012032;28;25093;-62
2021/09/13 04:50:40;;;;;;;7.18;6.45;;;12.90;99.90;;;;;;4990326;28;25100;-63
2021/09/13 04:53:06;;;;;;;11.02;6.93;;;13.10;99.90;;;;;;5005959;28;25080;-62
2021/09/13 04:55:31;;;;;;;12.10;8.93;;;13.00;99.90;;;;;;5002777;28;25091;-62
2021/09/13 04:57:57;;;;;;;8.23;7.03;;;12.90;99.90;;;;;;5007112;28;25093;-61
2021/09/13 05:00:23;;;;;;;9.45;6.65;;;12.90;99.90;;;;;;5003923;28;25073;-62
2021/09/13 05:02:49;;;;;;;13.80;6.63;;;12.90;99.90;;;;;;5000694;28;25060;-61
2021/09/13 05:05:14;;;;;;;10.90;7.25;;;12.80;99.90;;;;;;5009761;28;25053;-61
2021/09/13 05:07:40;;;;;;;11.45;7.10;;;12.90;99.90;;;;;;5008137;28;25065;-62
2021/09/13 05:10:06;;;;;;;12.95;6.72;;;12.80;99.90;;;;;;5008661;28;25096;-62
2021/09/13 05:12:32;;;;;;;11.77;7.00;;;12.90;99.90;;;;;;5004745;28;25069;-61
2021/09/13 05:14:57;;;;;;;8.48;7.00;;;12.90;99.90;;;;;;5014334;28;25109;-61
2021/09/13 05:17:23;;;;;;;9.25;6.93;;;12.90;99.90;;;;;;5009352;28;25141;-60
2021/09/13 05:19:48;;;;;;;10.27;6.65;;;13.00;99.90;;;;;;5008386;28;25128;-61
2021/09/13 05:22:14;;;;;;;9.30;6.70;;;13.10;99.90;;;;;;4983143;28;25066;-62
2021/09/13 05:24:39;;;;;;;13.05;7.28;;;13.10;99.90;;;;;;5009012;28;25112;-61
2021/09/13 05:27:05;;;;;;;10.13;7.53;;;13.00;99.90;;;;;;5007613;28;25152;-61
2021/09/13 05:29:31;;;;;;;13.73;9.05;;;12.90;99.90;;;;;;5009504;28;25142;-61
2021/09/13 05:31:56;;;;;;;11.68;8.73;;;12.80;99.90;;;;;;5006935;28;25051;-62
2021/09/13 05:34:22;;;;;;;9.05;8.15;;;12.80;99.90;;;;;;4990599;28;25170;-61
2021/09/13 05:36:47;;;;;;;11.05;6.93;;;12.90;99.90;;;;;;5008381;28;25086;-61
2021/09/13 05:39:13;;;;;;;10.60;7.88;;;12.90;99.90;;;;;;5008852;28;25109;-61
2021/09/13 05:41:38;;;;;;;11.63;7.60;;;12.90;99.90;;;;;;5007925;28;25052;-61
2021/09/13 05:44:05;;;;;;;16.92;9.13;;;13.00;99.90;;;;;;5007749;28;25087;-61
2021/09/13 05:46:31;;;;;;;12.57;7.60;;;12.90;99.90;;;;;;5007581;28;25100;-61
2021/09/13 05:48:57;;;;;;;11.45;8.27;;;12.90;99.90;;;;;;5007916;28;25115;-61
2021/09/13 05:51:23;;;;;;;12.82;8.38;;;13.10;99.90;;;;;;4988322;28;25107;-61
2021/09/13 05:53:48;;;;;;;12.45;8.18;;;13.10;99.90;;;;;;4979683;28;25090;-61
2021/09/13 05:56:14;;;;;;;13.95;8.35;;;13.20;99.90;;;;;;5000474;28;25116;-60
2021/09/13 05:58:39;;;;;;;18.98;10.07;;;13.20;99.90;;;;;;4997258;28;25166;-61
2021/09/13 06:01:05;;;;;;;11.68;9.20;;;13.20;99.90;;;;;;4997362;28;25143;-61
2021/09/13 06:03:31;;;;;;;14.05;9.57;;;13.20;99.90;;;;;;4989830;28;25062;-63
2021/09/13 06:05:57;;;;;;;16.23;10.30;;;13.20;99.90;;;;;;5000005;28;25138;-61
2021/09/13 06:08:22;;;;;;;13.52;9.63;;;13.30;99.90;;;;;;4997400;28;25105;-61
2021/09/13 06:10:48;;;;;;;15.70;9.35;;;13.40;99.90;;;;;;4998724;28;25088;-60
2021/09/13 06:13:14;;;;;;;11.32;7.90;;;13.50;99.90;;;;;;4995701;28;25107;-61
2021/09/13 06:15:40;;;;;;;13.70;9.40;;;13.50;99.90;;;;;;5001380;28;25067;-62
2021/09/13 06:18:06;;;;;;;16.60;9.93;;;13.50;99.90;;;;;;5000220;28;25134;-61
2021/09/13 06:20:31;;;;;;;17.83;11.43;;;13.70;99.90;;;;;;4996392;28;25057;-62
2021/09/13 06:22:57;;;;;;;15.23;8.77;;;13.80;99.90;;;;;;4979876;28;25117;-62
2021/09/13 06:25:23;;;;;;;14.98;9.77;;;13.80;99.90;;;;;;5002388;28;25121;-63
2021/09/13 06:27:49;;;;;;;19.05;11.02;;;13.80;99.90;;;;;;4998100;28;25049;-61
2021/09/13 06:30:14;;;;;;;25.00;10.10;;;13.90;99.90;;;;;;5006137;28;25152;-61
2021/09/13 06:32:40;;;;;;;13.35;10.32;;;14.00;99.90;;;;;;5006694;28;25054;-62
2021/09/13 06:35:06;;;;;;;13.75;10.70;;;14.10;99.90;;;;;;5008283;28;25100;-65
2021/09/13 06:37:32;;;;;;;15.60;12.13;;;14.10;99.90;;;;;;4984853;28;25137;-62
2021/09/13 06:39:58;;;;;;;15.95;11.63;;;14.10;99.90;;;;;;4990489;28;25071;-61
2021/09/13 06:42:30;;;;;;;18.13;11.82;;;14.20;99.90;;;;;;5004940;28;25067;-61
2021/09/13 06:44:56;;;;;;;16.45;11.50;;;14.20;99.90;;;;;;4990193;28;25046;-61
2021/09/13 06:48:07;;;;;;;14.27;10.65;;;14.40;99.90;;;;;;5006561;28;25076;-62
2021/09/13 06:50:08;;;;;;;13.93;11.38;;;14.50;99.90;;;;;;5000579;28;25092;-60
2021/09/13 06:52:33;;;;;;;17.23;12.55;;;14.50;99.90;;;;;;5007671;28;25088;-61
2021/09/13 06:54:59;;;;;;;22.42;13.90;;;14.50;99.90;;;;;;5007174;28;25089;-61
2021/09/13 06:57:24;;;;;;;18.65;12.77;;;14.50;99.90;;;;;;5001414;28;25086;-62
2021/09/13 06:59:50;;;;;;;19.35;12.73;;;14.50;99.90;;;;;;5009839;28;25129;-62
2021/09/13 07:02:16;;;;;;;15.82;11.82;;;14.60;99.90;;;;;;5010722;28;25126;-62
2021/09/13 07:04:41;;;;;;;13.85;10.73;;;14.80;99.90;;;;;;5008657;28;25059;-62
2021/09/13 07:07:07;;;;;;;15.52;11.93;;;15.00;99.90;;;;;;5000634;28;25066;-61
2021/09/13 07:09:32;;;;;;;19.40;12.13;;;15.10;99.90;;;;;;5006682;28;25058;-63
2021/09/13 07:11:58;;;;;;;20.48;12.18;;;15.20;99.90;;;;;;4997799;28;25154;-61
2021/09/13 07:14:23;;;;;;;14.27;10.38;;;15.40;99.90;;;;;;5007966;28;25118;-63
2021/09/13 07:16:49;;;;;;;19.15;9.75;;;15.70;99.90;;;;;;5006139;28;25081;-61
2021/09/13 07:19:14;;;;;;;22.77;10.73;;;15.90;99.90;;;;;;5004085;28;25072;-62
2021/09/13 07:21:40;;;;;;;17.67;8.73;;;15.90;99.90;;;;;;5005518;28;25057;-61
2021/09/13 07:24:06;;;;;;;19.65;9.77;;;15.90;99.90;;;;;;5006197;28;25057;-61
2021/09/13 07:26:31;;;;;;;15.25;5.53;;;16.00;99.90;;;;;;5006577;28;25096;-62
2021/09/13 07:28:57;;;;;;;17.83;5.70;;;16.00;99.90;;;;;;4999423;28;25084;-61
2021/09/13 07:31:22;;;;;;;9.88;6.05;;;16.00;99.90;;;;;;5001365;28;25067;-62
2021/09/13 07:33:48;;;;;;;14.07;5.05;;;16.10;99.90;;;;;;5007160;28;25092;-62
2021/09/13 07:36:13;;;;;;;7.47;3.60;;;16.30;99.90;;;;;;5006479;28;25063;-61
2021/09/13 07:38:39;;;;;;;7.50;3.55;;;16.20;99.90;;;;;;5007798;28;25085;-62
2021/09/13 07:41:04;;;;;;;10.48;3.47;;;16.20;99.90;;;;;;5004896;28;25156;-61
2021/09/13 07:43:30;;;;;;;11.98;3.70;;;16.10;99.90;;;;;;5002966;28;25071;-62
2021/09/13 07:45:55;;;;;;;13.52;4.43;;;16.10;99.90;;;;;;5002921;28;25156;-61
2021/09/13 07:48:22;;;;;;;8.00;4.72;;;16.10;99.90;;;;;;5005835;28;25106;-62
2021/09/13 07:50:48;;;;;;;13.30;3.28;;;16.10;99.90;;;;;;5005870;28;25058;-63
2021/09/13 07:53:14;;;;;;;9.98;2.97;;;16.10;99.90;;;;;;4995310;28;25064;-63
2021/09/13 07:55:39;;;;;;;9.05;2.63;;;16.00;99.90;;;;;;5006451;28;25211;-61
2021/09/13 07:58:05;;;;;;;11.85;2.50;;;16.10;99.90;;;;;;5004744;28;25071;-62
2021/09/13 08:00:30;;;;;;;4.85;2.20;;;16.20;99.90;;;;;;5007212;28;25120;-62
2021/09/13 08:02:56;;;;;;;6.47;2.10;;;16.20;99.90;;;;;;5003562;28;25073;-62
2021/09/13 08:05:21;;;;;;;6.32;1.83;;;16.20;99.90;;;;;;5006554;28;25124;-63
2021/09/13 08:07:47;;;;;;;13.43;2.42;;;16.40;99.90;;;;;;4998301;28;25147;-63
2021/09/13 08:10:12;;;;;;;7.00;2.60;;;16.40;99.90;;;;;;5002296;28;25048;-63
2021/09/13 08:12:38;;;;;;;11.73;2.00;;;16.40;99.90;;;;;;5003920;28;25063;-62
2021/09/13 08:15:05;;;;;;;6.45;2.05;;;16.50;99.90;;;;;;5004809;28;24973;-62
2021/09/13 08:17:31;;;;;;;7.72;1.70;;;16.70;99.90;;;;;;5003323;28;25079;-62
2021/09/13 08:19:57;;;;;;;9.70;1.75;;;16.70;99.90;;;;;;4996376;28;25056;-61
2021/09/13 08:22:23;;;;;;;7.93;2.50;;;16.70;99.90;;;;;;5004321;28;25097;-62
2021/09/13 08:24:50;;;;;;;8.68;3.22;;;16.70;99.90;;;;;;5007393;28;25053;-62
2021/09/13 08:27:16;;;;;;;5.82;2.63;;;16.80;99.90;;;;;;5001138;28;25126;-61
2021/09/13 08:29:41;;;;;;;11.57;2.30;;;16.70;99.90;;;;;;5005317;28;25066;-62
2021/09/13 08:32:07;;;;;;;7.43;2.70;;;16.70;99.90;;;;;;5005786;28;25078;-62
2021/09/13 08:34:32;;;;;;;13.95;3.08;;;16.90;99.90;;;;;;5011999;28;25069;-63
2021/09/13 08:36:58;;;;;;;11.07;3.30;;;17.00;99.90;;;;;;5011268;28;25079;-62
2021/09/13 08:39:24;;;;;;;8.77;2.40;;;16.90;99.90;;;;;;5015993;28;25082;-63
2021/09/13 08:41:49;;;;;;;5.68;2.28;;;17.10;99.90;;;;;;5009211;28;25095;-62
2021/09/13 08:44:15;;;;;;;9.82;2.67;;;17.40;99.90;;;;;;5005735;28;25075;-62
2021/09/13 08:46:47;;;;;;;6.90;2.50;;;17.50;99.90;;;;;;5008579;28;25062;-62
2021/09/13 08:49:28;;;;;;;3.63;1.83;;;17.70;99.90;;;;;;5010653;28;25080;-63
2021/09/13 08:51:54;;;;;;;6.80;2.45;;;18.10;99.90;;;;;;5011822;28;25101;-63
2021/09/13 08:54:21;;;;;;;8.65;2.53;;;18.20;99.90;;;;;;5007353;28;25055;-62
2021/09/13 08:56:52;;;;;;;4.25;2.15;;;18.40;99.90;;;;;;5010232;28;25088;-64
2021/09/13 08:59:22;;;;;;;4.85;2.17;;;18.50;99.90;;;;;;4996258;28;25058;-65
2021/09/13 09:01:50;;;;;;;8.27;2.03;;;18.70;99.90;;;;;;5005619;28;25047;-64
2021/09/13 09:04:15;;;;;;;4.03;2.35;;;18.90;99.90;;;;;;5014899;28;25046;-63
2021/09/13 09:06:42;;;;;;;5.22;1.80;;;18.90;99.90;;;;;;5008424;28;25126;-65
2021/09/13 09:09:10;;;;;;;6.25;2.42;;;19.00;99.90;;;;;;5010834;28;25082;-63
2021/09/13 09:12:09;;;;;;;6.50;1.90;;;19.10;99.90;;;;;;5010819;28;25070;-63
2021/09/13 09:14:38;;;;;;;5.45;2.40;;;19.30;99.90;;;;;;4974817;28;25082;-62
2021/09/13 09:17:23;;;;;;;7.15;2.38;;;19.40;99.90;;;;;;5007872;28;25127;-62
2021/09/13 09:20:03;;;;;;;4.63;1.95;;;19.40;99.90;;;;;;5002372;28;25123;-62
2021/09/13 09:22:30;;;;;;;8.45;2.65;;;19.10;99.90;;;;;;5004602;28;25120;-63
2021/09/13 09:24:57;;;;;;;7.25;2.25;;;19.10;99.90;;;;;;5005983;28;25071;-62
2021/09/13 09:27:24;;;;;;;5.78;2.35;;;18.70;99.90;;;;;;4994609;28;25126;-62
2021/09/13 09:29:51;;;;;;;5.00;1.95;;;18.60;99.90;;;;;;4981964;28;25128;-62
2021/09/13 09:32:25;;;;;;;5.88;2.40;;;18.90;99.90;;;;;;4998226;28;25069;-64
2021/09/13 09:34:52;;;;;;;6.03;2.80;;;19.10;99.90;;;;;;5006538;28;25067;-62
2021/09/13 09:37:19;;;;;;;3.75;2.15;;;18.70;99.90;;;;;;4991956;28;25084;-62
2021/09/13 09:39:53;;;;;;;6.22;2.20;;;18.20;99.90;;;;;;5001375;28;25064;-62
2021/09/13 09:42:31;;;;;;;4.30;1.95;;;17.90;99.90;;;;;;5004953;28;25126;-63
2021/09/13 09:44:59;;;;;;;6.03;1.90;;;18.20;99.90;;;;;;5003780;28;25125;-62
2021/09/13 09:47:25;;;;;;;4.18;2.20;;;18.40;99.90;;;;;;5005755;28;25058;-62
2021/09/13 09:49:54;;;;;;;9.85;2.38;;;18.80;99.90;;;;;;5006530;28;25109;-61
2021/09/13 09:52:32;;;;;;;7.25;2.42;;;19.00;99.90;;;;;;5005631;28;25056;-63
2021/09/13 09:55:06;;;;;;;7.25;2.92;;;19.00;99.90;;;;;;5005493;28;25172;-62
2021/09/13 09:57:32;;;;;;;7.55;3.08;;;18.90;99.90;;;;;;5002609;28;25053;-62
2021/09/13 09:59:57;;;;;;;6.15;2.25;;;18.60;99.90;;;;;;5002885;28;25067;-63
2021/09/13 10:02:24;;;;;;;9.30;2.33;;;18.70;99.90;;;;;;4994816;28;25073;-62
2021/09/13 10:04:53;;;;;;;8.32;2.45;;;18.70;99.90;;;;;;5005315;28;25067;-62
2021/09/13 10:07:20;;;;;;;5.18;2.13;;;18.80;99.90;;;;;;4997107;28;25059;-61
2021/09/13 10:09:45;;;;;;;6.60;2.45;;;18.80;99.90;;;;;;5008021;28;25066;-62
2021/09/13 10:12:12;;;;;;;4.00;2.30;;;18.80;99.90;;;;;;4986217;28;25066;-63
2021/09/13 10:14:38;;;;;;;7.68;2.55;;;18.80;99.90;;;;;;5006617;28;25115;-62
2021/09/13 10:17:07;;;;;;;5.55;2.22;;;18.80;99.90;;;;;;4998137;28;25077;-62
2021/09/13 10:19:34;;;;;;;6.90;2.15;;;19.00;99.90;;;;;;4998925;28;25066;-63
2021/09/13 10:22:00;;;;;;;4.78;2.05;;;19.00;99.90;;;;;;4997951;28;25142;-63
2021/09/13 10:24:31;;;;;;;4.40;2.05;;;19.00;99.90;;;;;;5005230;28;25128;-62
2021/09/13 10:27:07;;;;;;;4.68;2.70;;;18.80;99.90;;;;;;5022084;22;25109;-69
2021/09/13 10:29:33;;;;;;;5.50;2.30;;;18.90;99.90;;;;;;4989856;28;25115;-69
2021/09/13 10:32:07;;;;;;;6.32;2.53;;;19.00;99.90;;;;;;4988212;28;25065;-70
2021/09/13 10:34:40;;;;;;;3.53;1.88;;;18.80;99.90;;;;;;4990420;28;25139;-70
2021/09/13 10:37:06;;;;;;;5.90;2.20;;;18.70;99.90;;;;;;4989265;28;25087;-68
2021/09/13 10:40:06;;;;;;;7.32;1.80;;;18.70;99.90;;;;;;4989278;28;25130;-69
2021/09/13 10:42:53;;;;;;;5.07;2.25;;;18.90;99.90;;;;;;4986909;28;25135;-67
2021/09/13 10:45:39;;;;;;;2.85;2.10;;;19.00;99.90;;;;;;4988805;28;25084;-68
2021/09/13 10:48:23;;;;;;;5.95;2.55;;;18.90;99.90;;;;;;4993604;28;25065;-70
2021/09/13 10:50:55;;;;;;;8.43;3.30;;;19.00;99.90;;;;;;4988360;28;25152;-70
2021/09/13 10:53:21;;;;;;;4.90;2.78;;;19.20;99.90;;;;;;4990891;28;25129;-69
2021/09/13 10:55:59;;;;;;;3.75;2.08;;;19.10;99.90;;;;;;4992729;28;25071;-69
2021/09/13 10:58:44;;;;;;;5.55;3.05;;;19.00;99.90;;;;;;4980207;28;25049;-69
2021/09/13 11:01:20;;;;;;;5.50;2.90;;;19.20;99.90;;;;;;4984531;28;25090;-69
2021/09/13 11:03:54;;;;;;;5.80;2.55;;;19.00;99.90;;;;;;4987339;28;25065;-72
2021/09/13 11:06:19;;;;;;;6.55;3.03;;;18.90;99.90;;;;;;4974494;28;25048;-73
2021/09/13 11:09:02;;;;;;;8.30;2.22;;;19.00;99.90;;;;;;4988342;28;25167;-68
2021/09/13 11:11:30;;;;;;;5.65;2.67;;;19.20;99.90;;;;;;4987676;28;25126;-70
2021/09/13 11:14:03;;;;;;;6.80;2.38;;;19.50;99.90;;;;;;4990618;28;25080;-70
2021/09/13 11:16:31;;;;;;;5.22;2.63;;;19.50;99.90;;;;;;4996023;28;25061;-69
2021/09/13 11:18:56;;;;;;;4.47;2.67;;;19.80;99.90;;;;;;4995626;28;25088;-70
2021/09/13 11:21:32;;;;;;;7.15;2.38;;;20.00;99.90;;;;;;4997545;28;25089;-72
2021/09/13 11:24:04;;;;;;;6.13;2.88;;;19.80;99.90;;;;;;4990483;28;25125;-71
2021/09/13 11:26:29;;;;;;;;;;;19.90;99.90;;;;;;4993955;28;25073;-71
2021/09/13 11:29:04;;;;;;;3.97;2.35;;;20.20;99.90;;;;;;4983912;28;25093;-67
2021/09/13 11:31:41;;;;;;;4.28;1.80;;;20.40;99.90;;;;;;4985046;28;25103;-68
2021/09/13 11:34:13;;;;;;;3.78;1.90;;;20.20;99.90;;;;;;4988131;28;25090;-68
2021/09/13 11:36:40;;;;;;;4.70;2.15;;;20.50;99.90;;;;;;4988716;28;25067;-69
2021/09/13 11:39:07;;;;;;;7.50;2.05;;;20.80;99.90;;;;;;4985895;28;25107;-67
2021/09/13 11:41:34;;;;;;;5.35;2.10;;;20.60;99.90;;;;;;4982266;28;25068;-68
2021/09/13 11:44:05;;;;;;;4.63;1.50;;;20.40;99.90;;;;;;4983750;28;25068;-68
2021/09/13 11:46:49;;;;;;;9.45;1.55;;;20.30;99.90;;;;;;4988683;28;25220;-68
2021/09/13 11:49:16;;;;;;;2.25;1.27;;;20.00;99.90;;;;;;4987923;28;25112;-68
2021/09/13 11:52:06;;;;;;;1.90;1.33;;;20.20;99.90;;;;;;4981065;28;25137;-68
2021/09/13 11:54:43;;;;;;;4.38;1.40;;;20.30;99.90;;;;;;4982872;28;25118;-68
2021/09/13 11:57:28;;;;;;;2.05;1.20;;;20.50;99.90;;;;;;4991917;28;25064;-68
2021/09/13 12:00:14;;;;;;;2.00;1.38;;;20.50;99.90;;;;;;4985780;28;25082;-68
2021/09/13 12:02:43;;;;;;;4.68;1.50;;;20.70;99.90;;;;;;4985028;28;25066;-68
2021/09/13 12:05:20;;;;;;;3.08;1.33;;;20.60;99.90;;;;;;4993053;28;25073;-68
2021/09/13 12:07:48;;;;;;;4.28;2.45;;;20.80;99.90;;;;;;4994697;28;25139;-67
2021/09/13 12:10:34;;;;;;;4.35;2.30;;;20.50;99.90;;;;;;4994305;28;25058;-68
2021/09/13 12:13:15;;;;;;;4.55;2.50;;;20.30;99.90;;;;;;4999215;28;25078;-68
2021/09/13 12:15:49;;;;;;;4.65;2.05;;;20.00;99.90;;;;;;4992995;28;25113;-69
2021/09/13 12:18:16;;;;;;;10.75;2.60;;;19.80;99.90;;;;;;4993592;28;25142;-68
2021/09/13 12:20:43;;;;;;;8.18;2.83;;;19.80;99.90;;;;;;4993269;28;25066;-69
2021/09/13 12:23:12;;;;;;;2.90;1.85;;;20.10;99.90;;;;;;4998914;28;25153;-66
2021/09/13 12:25:47;;;;;;;6.88;2.40;;;20.10;99.90;;;;;;5001152;28;25077;-69
2021/09/13 12:28:23;;;;;;;3.70;1.67;;;20.00;99.90;;;;;;5001404;28;25098;-68
2021/09/13 12:30:55;;;;;;;3.80;1.52;;;19.80;99.90;;;;;;5000728;28;25066;-67
2021/09/13 12:33:21;;;;;;;6.30;1.60;;;19.90;99.90;;;;;;4997303;28;25133;-66
2021/09/13 12:35:49;;;;;;;3.55;1.45;;;19.80;99.90;;;;;;5000552;28;25155;-67
2021/09/13 12:38:16;;;;;;;6.63;1.88;;;20.00;99.90;;;;;;4994125;28;25071;-68
2021/09/13 12:40:59;;;;;;;3.90;2.20;;;20.00;99.90;;;;;;4997889;28;25092;-67
2021/09/13 12:43:33;;;;;;;5.78;2.20;;;20.20;99.90;;;;;;4997739;28;25077;-67
2021/09/13 12:46:05;;;;;;;4.20;2.63;;;20.20;99.90;;;;;;4990000;28;25114;-68
2021/09/13 12:48:31;;;;;;;6.57;2.50;;;20.10;99.90;;;;;;4995323;28;25048;-67
2021/09/13 12:50:57;;;;;;;2.85;2.15;;;20.00;99.90;;;;;;4991293;28;25094;-67
2021/09/13 12:53:28;;;;;;;4.60;2.47;;;19.90;99.90;;;;;;4986529;28;25085;-67
2021/09/13 12:55:55;;;;;;;5.32;2.20;;;20.10;99.90;;;;;;4990536;28;25048;-67